Time;durP1;ratioP1;P1;durP2;ratioP2;P2;SDS_P1;SDS_P2;PMS_P1;PMS_P2;Temp;Humidity;BMP_temperature;BMP_pressure;BME280_temperature;BME280_humidity;BME280_pressure;Samples;Min_cycle;Max_cycle;Signal;HPM_P1;HPM_P2
2023/07/29 00:02:00;;;;;;;6.33;1.73;;;20.00;99.90;;;;;;5090734;28;20224;-70
2023/07/29 00:04:26;;;;;;;1.63;1.53;;;20.00;99.90;;;;;;5090808;28;20170;-70
2023/07/29 00:06:51;;;;;;;1.67;1.57;;;20.00;99.90;;;;;;5091576;28;20703;-70
2023/07/29 00:09:17;;;;;;;1.60;1.40;;;20.00;99.90;;;;;;5091944;28;20189;-70
2023/07/29 00:11:42;;;;;;;1.60;1.50;;;20.00;99.90;;;;;;5090728;28;20537;-70
2023/07/29 00:14:08;;;;;;;1.60;1.30;;;20.00;99.90;;;;;;5091748;28;20176;-70
2023/07/29 00:16:33;;;;;;;1.73;1.53;;;20.00;99.90;;;;;;5090716;28;20166;-70
2023/07/29 00:18:59;;;;;;;1.57;1.20;;;20.00;99.90;;;;;;5084333;28;20212;-70
2023/07/29 00:21:24;;;;;;;1.70;1.60;;;20.00;99.90;;;;;;5091750;28;20661;-70
2023/07/29 00:23:50;;;;;;;2.03;1.40;;;20.00;99.90;;;;;;5092710;28;20265;-70
2023/07/29 00:26:16;;;;;;;1.80;1.40;;;20.00;99.90;;;;;;5094235;28;20222;-70
2023/07/29 00:28:41;;;;;;;1.40;1.30;;;20.00;99.90;;;;;;5094405;28;20166;-70
2023/07/29 00:31:07;;;;;;;2.17;1.40;;;20.00;99.90;;;;;;5094691;28;20162;-70
2023/07/29 00:33:32;;;;;;;2.03;1.83;;;20.00;99.90;;;;;;5095745;28;20200;-70
2023/07/29 00:36:01;;;;;;;4.30;1.60;;;20.00;99.90;;;;;;5093804;28;20227;-70
2023/07/29 00:38:27;;;;;;;1.80;1.70;;;20.10;99.90;;;;;;5094182;28;20195;-70
2023/07/29 00:40:52;;;;;;;1.63;1.50;;;20.10;99.90;;;;;;5094088;28;20514;-70
2023/07/29 00:43:18;;;;;;;3.00;2.17;;;20.10;99.90;;;;;;5094134;28;20638;-69
2023/07/29 00:45:44;;;;;;;1.63;1.53;;;20.00;99.90;;;;;;5095428;28;20193;-70
2023/07/29 00:48:10;;;;;;;2.30;1.60;;;20.00;99.90;;;;;;5094499;28;20187;-70
2023/07/29 00:50:36;;;;;;;1.40;1.30;;;20.00;99.90;;;;;;5095249;28;20424;-70
2023/07/29 00:53:01;;;;;;;2.00;1.40;;;20.00;99.90;;;;;;5090674;28;20166;-70
2023/07/29 00:55:28;;;;;;;1.47;1.37;;;20.00;99.90;;;;;;5093814;28;20169;-70
2023/07/29 00:57:54;;;;;;;1.57;1.47;;;20.00;99.90;;;;;;5094427;28;20180;-70
2023/07/29 01:00:21;;;;;;;1.30;1.20;;;20.10;99.90;;;;;;5095001;28;20424;-70
2023/07/29 01:02:46;;;;;;;2.37;1.53;;;20.10;99.90;;;;;;5094966;28;20453;-70
2023/07/29 01:05:14;;;;;;;1.67;1.57;;;20.10;99.90;;;;;;5093348;28;20431;-70
2023/07/29 01:07:54;;;;;;;6.30;1.60;;;20.10;99.90;;;;;;5092512;28;20288;-70
2023/07/29 01:10:47;;;;;;;1.23;1.13;;;20.10;99.90;;;;;;5094042;28;20463;-70
2023/07/29 01:13:39;;;;;;;2.03;1.83;;;20.00;99.90;;;;;;5088439;28;20505;-70
2023/07/29 01:16:19;;;;;;;1.53;1.43;;;20.10;99.90;;;;;;5094797;28;20431;-70
2023/07/29 01:18:47;;;;;;;1.50;1.40;;;20.10;99.90;;;;;;5095021;28;20395;-70
2023/07/29 01:21:15;;;;;;;1.70;1.60;;;20.10;99.90;;;;;;5093667;28;20431;-70
2023/07/29 01:23:41;;;;;;;1.50;1.40;;;20.20;99.90;;;;;;5093754;28;20431;-70
2023/07/29 01:26:06;;;;;;;1.57;1.47;;;20.20;99.90;;;;;;5092864;28;20451;-70
2023/07/29 01:28:32;;;;;;;2.00;1.60;;;20.20;99.90;;;;;;5093224;28;20165;-70
2023/07/29 01:31:13;;;;;;;1.90;1.60;;;20.20;99.90;;;;;;5093192;28;20666;-70
2023/07/29 01:33:52;;;;;;;1.60;1.50;;;20.20;99.90;;;;;;5094460;28;20165;-70
2023/07/29 01:36:23;;;;;;;2.70;1.90;;;20.30;99.90;;;;;;5093416;28;20403;-70
2023/07/29 01:38:50;;;;;;;1.50;1.23;;;20.30;99.90;;;;;;5094297;28;20436;-70
2023/07/29 01:41:18;;;;;;;1.67;1.57;;;20.30;99.90;;;;;;5086614;28;20424;-70
2023/07/29 01:43:44;;;;;;;1.60;1.50;;;20.30;99.90;;;;;;5094291;28;20412;-70
2023/07/29 01:46:11;;;;;;;1.40;1.30;;;20.30;99.90;;;;;;5093859;28;20573;-70
2023/07/29 01:48:37;;;;;;;1.17;1.07;;;20.30;99.90;;;;;;5092900;28;20982;-71
2023/07/29 01:51:03;;;;;;;1.43;1.33;;;20.30;99.90;;;;;;5094164;28;20396;-71
2023/07/29 01:53:29;;;;;;;3.23;2.47;;;20.30;99.90;;;;;;5094124;28;20175;-71
2023/07/29 01:55:54;;;;;;;1.80;1.70;;;20.30;99.90;;;;;;5089404;28;21111;-71
2023/07/29 01:58:20;;;;;;;2.47;1.67;;;20.20;99.90;;;;;;5080432;28;20208;-71
2023/07/29 02:00:45;;;;;;;1.00;0.90;;;20.20;99.90;;;;;;5094089;28;20177;-71
2023/07/29 02:03:11;;;;;;;1.40;1.27;;;20.20;99.90;;;;;;5092614;28;20189;-71
2023/07/29 02:05:36;;;;;;;1.50;1.40;;;20.20;99.90;;;;;;5093695;28;20161;-71
2023/07/29 02:08:02;;;;;;;1.80;1.70;;;20.10;99.90;;;;;;5092318;28;20233;-71
2023/07/29 02:10:27;;;;;;;2.03;1.20;;;20.10;99.90;;;;;;5093879;28;20284;-71
2023/07/29 02:12:53;;;;;;;2.00;1.47;;;20.00;99.90;;;;;;5089178;28;20252;-71
2023/07/29 02:15:18;;;;;;;2.70;1.77;;;20.00;99.90;;;;;;5091502;28;20579;-71
2023/07/29 02:17:44;;;;;;;1.33;1.23;;;20.00;99.90;;;;;;5093961;28;20180;-72
2023/07/29 02:20:10;;;;;;;1.37;1.27;;;19.90;99.90;;;;;;5093544;28;20196;-71
2023/07/29 02:22:36;;;;;;;2.40;1.40;;;19.90;99.90;;;;;;5093597;28;20170;-71
2023/07/29 02:25:02;;;;;;;4.33;1.80;;;19.80;99.90;;;;;;5091984;28;20453;-71
2023/07/29 02:27:28;;;;;;;1.30;1.20;;;19.90;99.90;;;;;;5093637;28;20222;-71
2023/07/29 02:29:54;;;;;;;1.90;1.80;;;19.80;99.90;;;;;;5091162;28;20451;-71
2023/07/29 02:32:20;;;;;;;2.43;1.20;;;19.80;99.90;;;;;;5092116;28;20174;-71
2023/07/29 02:34:45;;;;;;;1.87;1.77;;;19.90;99.90;;;;;;5092058;28;20412;-71
2023/07/29 02:37:11;;;;;;;2.27;1.90;;;19.90;99.90;;;;;;5092983;28;20430;-71
2023/07/29 02:39:37;;;;;;;1.77;1.37;;;19.90;99.90;;;;;;5093128;28;20244;-70
2023/07/29 02:42:02;;;;;;;1.83;1.53;;;19.80;99.90;;;;;;5093036;28;20182;-71
2023/07/29 02:44:28;;;;;;;1.83;1.70;;;19.80;99.90;;;;;;5087582;28;20631;-71
2023/07/29 02:46:55;;;;;;;2.37;1.80;;;19.80;99.90;;;;;;5091618;28;20243;-71
2023/07/29 02:49:21;;;;;;;4.13;1.73;;;19.70;99.90;;;;;;5091738;28;20193;-71
2023/07/29 02:51:47;;;;;;;2.30;1.80;;;19.70;99.90;;;;;;5092783;28;20408;-71
2023/07/29 02:54:12;;;;;;;3.03;1.60;;;19.70;99.90;;;;;;5091724;28;20935;-70
2023/07/29 02:56:38;;;;;;;2.23;1.77;;;19.70;99.90;;;;;;5091631;28;20173;-70
2023/07/29 02:59:04;;;;;;;1.90;1.80;;;19.70;99.90;;;;;;5091493;28;20193;-70
2023/07/29 03:01:30;;;;;;;1.73;1.63;;;19.70;99.90;;;;;;5090163;28;20207;-70
2023/07/29 03:03:56;;;;;;;1.60;1.50;;;19.70;99.90;;;;;;5092430;28;20924;-71
2023/07/29 03:06:21;;;;;;;2.37;1.80;;;19.70;99.90;;;;;;5092403;28;20200;-70
2023/07/29 03:08:47;;;;;;;1.63;1.53;;;19.60;99.90;;;;;;5091223;28;20268;-70
2023/07/29 03:11:13;;;;;;;2.07;1.87;;;19.60;99.90;;;;;;5091418;28;20208;-71
2023/07/29 03:13:39;;;;;;;3.50;1.63;;;19.60;99.90;;;;;;5092632;28;20166;-70
2023/07/29 03:16:15;;;;;;;3.20;2.10;;;19.60;99.90;;;;;;5092385;28;20406;-70
2023/07/29 03:18:42;;;;;;;1.40;1.30;;;19.70;99.90;;;;;;5087207;28;20549;-70
2023/07/29 03:21:08;;;;;;;1.60;1.50;;;19.70;99.90;;;;;;5091129;28;20407;-70
2023/07/29 03:23:34;;;;;;;2.50;2.07;;;19.80;99.90;;;;;;5091116;28;20445;-70
2023/07/29 03:26:04;;;;;;;6.10;1.90;;;19.80;99.90;;;;;;5092119;28;20407;-70
2023/07/29 03:28:33;;;;;;;2.47;1.87;;;19.80;99.90;;;;;;5092378;28;20396;-70
2023/07/29 03:30:58;;;;;;;2.90;2.10;;;19.80;99.90;;;;;;5091083;28;20812;-70
2023/07/29 03:33:25;;;;;;;2.00;1.80;;;19.80;99.90;;;;;;5091021;28;20407;-70
2023/07/29 03:35:51;;;;;;;1.90;1.80;;;19.70;99.90;;;;;;5079211;28;20533;-70
2023/07/29 03:38:17;;;;;;;2.00;1.90;;;19.80;99.90;;;;;;5074898;28;20495;-71
2023/07/29 03:40:42;;;;;;;2.13;1.93;;;19.80;99.90;;;;;;5080161;28;20197;-71
2023/07/29 03:43:08;;;;;;;2.50;1.63;;;19.80;99.90;;;;;;5091132;28;20176;-71
2023/07/29 03:45:35;;;;;;;2.03;1.87;;;19.70;99.90;;;;;;5091992;28;20611;-71
2023/07/29 03:48:01;;;;;;;1.40;1.30;;;19.70;99.90;;;;;;5092064;28;20922;-71
2023/07/29 03:50:29;;;;;;;3.60;1.70;;;19.70;99.90;;;;;;5089770;28;20564;-71
2023/07/29 03:52:54;;;;;;;2.20;1.80;;;19.70;99.90;;;;;;5084328;28;20256;-71
2023/07/29 03:55:20;;;;;;;3.63;2.00;;;19.60;99.90;;;;;;5091865;28;20499;-71
2023/07/29 03:57:46;;;;;;;3.13;1.83;;;19.60;99.90;;;;;;5092366;28;20165;-71
2023/07/29 04:00:11;;;;;;;2.93;1.97;;;19.60;99.90;;;;;;5096258;28;20193;-71
2023/07/29 04:02:38;;;;;;;1.70;1.60;;;19.60;99.90;;;;;;5095111;28;20169;-71
2023/07/29 04:05:04;;;;;;;2.00;1.80;;;19.60;99.90;;;;;;5095960;28;20189;-71
2023/07/29 04:07:31;;;;;;;3.83;2.20;;;19.60;99.90;;;;;;5093718;28;20467;-71
2023/07/29 04:09:56;;;;;;;2.50;1.93;;;19.50;99.90;;;;;;5095027;28;20447;-71
2023/07/29 04:12:22;;;;;;;2.30;2.10;;;19.50;99.90;;;;;;5094688;28;20837;-71
2023/07/29 04:14:48;;;;;;;2.27;2.07;;;19.40;99.90;;;;;;5095954;28;20162;-71
2023/07/29 04:17:14;;;;;;;1.90;1.80;;;19.40;99.90;;;;;;5095581;28;20457;-71
2023/07/29 04:19:39;;;;;;;2.33;2.10;;;19.30;99.90;;;;;;5094337;28;20194;-71
2023/07/29 04:22:05;;;;;;;3.30;2.07;;;19.30;99.90;;;;;;5095836;28;20169;-71
2023/07/29 04:24:31;;;;;;;2.37;2.17;;;19.30;99.90;;;;;;5091867;28;20174;-71
2023/07/29 04:26:56;;;;;;;2.47;2.27;;;19.40;99.90;;;;;;5093056;28;20201;-71
2023/07/29 04:29:22;;;;;;;2.13;1.87;;;19.40;99.90;;;;;;5089188;28;20197;-71
2023/07/29 04:31:49;;;;;;;2.90;2.40;;;19.40;99.90;;;;;;5094082;28;20165;-71
2023/07/29 04:34:14;;;;;;;4.40;2.77;;;19.40;99.90;;;;;;5095516;28;20418;-71
2023/07/29 04:36:40;;;;;;;4.10;2.70;;;19.40;99.90;;;;;;5095350;28;20404;-71
2023/07/29 04:39:05;;;;;;;3.20;2.90;;;19.40;99.90;;;;;;5095504;28;20182;-72
2023/07/29 04:41:31;;;;;;;2.13;2.03;;;19.40;99.90;;;;;;5095512;28;20165;-71
2023/07/29 04:43:56;;;;;;;3.63;3.33;;;19.40;99.90;;;;;;5091650;28;20523;-71
2023/07/29 04:46:22;;;;;;;3.30;3.00;;;19.40;99.90;;;;;;5093767;28;20543;-72
2023/07/29 04:48:47;;;;;;;5.13;2.90;;;19.50;99.90;;;;;;5095266;28;20168;-71
2023/07/29 04:51:13;;;;;;;3.50;3.20;;;19.50;99.90;;;;;;5095422;28;20244;-72
2023/07/29 04:53:38;;;;;;;3.30;3.00;;;19.50;99.90;;;;;;5093997;28;20170;-71
2023/07/29 04:56:04;;;;;;;2.87;2.57;;;19.60;99.90;;;;;;5095005;28;20175;-71
2023/07/29 04:58:30;;;;;;;3.67;3.27;;;19.60;99.90;;;;;;5087065;28;20245;-72
2023/07/29 05:00:56;;;;;;;2.60;2.40;;;19.60;99.90;;;;;;5094548;28;20431;-71
2023/07/29 05:03:21;;;;;;;5.47;3.47;;;19.70;99.90;;;;;;5093748;28;20208;-71
2023/07/29 05:05:47;;;;;;;3.13;2.83;;;19.70;99.90;;;;;;5093564;28;20555;-71
2023/07/29 05:08:12;;;;;;;2.50;2.00;;;19.70;99.90;;;;;;5094934;28;20193;-72
2023/07/29 05:10:38;;;;;;;3.03;2.60;;;19.80;99.90;;;;;;5094907;28;20220;-72
2023/07/29 05:13:03;;;;;;;2.57;2.37;;;19.80;99.90;;;;;;5093623;28;20534;-72
2023/07/29 05:15:30;;;;;;;2.57;2.37;;;19.80;99.90;;;;;;5090920;28;20170;-71
2023/07/29 05:17:56;;;;;;;3.20;2.43;;;19.90;99.90;;;;;;5094659;28;20275;-71
2023/07/29 05:20:21;;;;;;;2.37;2.20;;;20.00;99.90;;;;;;5093363;28;20431;-71
2023/07/29 05:22:46;;;;;;;2.43;2.23;;;20.10;99.90;;;;;;5094728;28;20189;-72
2023/07/29 05:25:12;;;;;;;2.83;2.63;;;20.20;99.90;;;;;;5093304;28;20288;-72
2023/07/29 05:27:37;;;;;;;2.50;2.20;;;20.20;99.90;;;;;;5093381;28;20602;-71
2023/07/29 05:30:04;;;;;;;3.23;1.90;;;20.20;99.90;;;;;;5093237;28;20291;-72
2023/07/29 05:32:29;;;;;;;2.17;1.97;;;20.20;99.90;;;;;;5090162;28;20274;-71
2023/07/29 05:34:55;;;;;;;4.10;2.30;;;20.20;99.90;;;;;;5093001;28;20526;-71
2023/07/29 05:37:20;;;;;;;8.57;3.67;;;20.20;99.90;;;;;;5094385;28;20588;-72
2023/07/29 05:39:46;;;;;;;6.37;5.77;;;20.20;99.90;;;;;;5093076;28;20197;-71
2023/07/29 05:42:11;;;;;;;5.00;2.57;;;20.10;99.90;;;;;;5094404;28;20168;-72
2023/07/29 05:44:37;;;;;;;4.90;2.60;;;20.10;99.90;;;;;;5094345;28;20204;-71
2023/07/29 05:47:02;;;;;;;2.93;2.27;;;20.10;99.90;;;;;;5093888;28;20276;-71
2023/07/29 05:49:28;;;;;;;2.00;1.63;;;20.20;99.90;;;;;;5090212;28;20610;-70
2023/07/29 05:51:53;;;;;;;2.07;1.87;;;20.20;99.90;;;;;;5094112;28;20173;-71
2023/07/29 05:54:19;;;;;;;12.43;6.80;;;20.30;99.90;;;;;;5094189;28;20555;-71
2023/07/29 05:56:45;;;;;;;3.00;2.73;;;20.40;99.90;;;;;;5093828;28;20184;-70
2023/07/29 05:59:10;;;;;;;6.07;2.67;;;20.40;99.90;;;;;;5092808;28;20197;-70
2023/07/29 06:01:36;;;;;;;2.30;1.40;;;20.50;99.90;;;;;;5092640;28;20201;-70
2023/07/29 06:04:01;;;;;;;2.30;2.10;;;20.50;99.90;;;;;;5092523;28;20260;-71
2023/07/29 06:06:27;;;;;;;1.60;1.50;;;20.60;99.90;;;;;;5092252;28;20236;-70
2023/07/29 06:08:52;;;;;;;1.93;1.80;;;20.70;99.90;;;;;;5092424;28;20230;-70
2023/07/29 06:11:18;;;;;;;2.03;1.80;;;20.70;99.90;;;;;;5093668;28;20211;-71
2023/07/29 06:13:44;;;;;;;1.40;1.30;;;20.80;99.90;;;;;;5092474;28;20682;-71
2023/07/29 06:16:09;;;;;;;3.13;2.00;;;20.80;99.90;;;;;;5093440;28;20223;-71
2023/07/29 06:18:34;;;;;;;2.30;2.10;;;20.90;99.90;;;;;;5092086;28;20166;-71
2023/07/29 06:21:00;;;;;;;2.43;2.23;;;20.90;99.90;;;;;;5093038;28;20649;-70
2023/07/29 06:23:26;;;;;;;2.23;1.70;;;20.90;99.90;;;;;;5093490;28;20634;-71
2023/07/29 06:25:51;;;;;;;6.13;1.90;;;21.00;99.90;;;;;;5093196;28;20166;-71
2023/07/29 06:28:17;;;;;;;1.70;1.60;;;21.00;99.90;;;;;;5093312;28;20208;-71
2023/07/29 06:30:42;;;;;;;2.33;1.93;;;21.20;99.90;;;;;;5093363;28;20185;-72
2023/07/29 06:33:08;;;;;;;12.30;10.03;;;21.20;99.90;;;;;;5093239;28;20664;-71
2023/07/29 06:35:34;;;;;;;3.00;2.70;;;21.30;99.90;;;;;;5091862;28;20166;-71
2023/07/29 06:37:59;;;;;;;2.03;1.63;;;21.30;99.90;;;;;;5093443;28;20946;-71
2023/07/29 06:40:25;;;;;;;1.87;1.77;;;21.30;99.90;;;;;;5091905;28;20189;-71
2023/07/29 06:42:50;;;;;;;4.47;1.60;;;21.30;99.90;;;;;;5091802;28;20173;-71
2023/07/29 06:45:16;;;;;;;1.80;1.50;;;21.40;99.90;;;;;;5091674;28;20174;-71
2023/07/29 06:47:41;;;;;;;3.17;1.53;;;21.40;99.90;;;;;;5092910;28;20669;-71
2023/07/29 06:50:07;;;;;;;2.63;1.87;;;21.50;99.90;;;;;;5091881;28;20195;-71
2023/07/29 06:52:33;;;;;;;1.73;1.63;;;21.70;99.90;;;;;;5092989;28;20172;-71
2023/07/29 06:54:58;;;;;;;2.00;1.77;;;22.20;99.90;;;;;;5092902;28;20646;-70
2023/07/29 06:57:24;;;;;;;2.33;1.70;;;22.70;99.90;;;;;;5092725;28;20216;-71
2023/07/29 06:59:49;;;;;;;5.60;4.40;;;23.10;99.90;;;;;;5092575;28;20529;-70
2023/07/29 07:02:15;;;;;;;3.00;2.70;;;23.50;99.90;;;;;;5091227;28;20200;-70
2023/07/29 07:04:40;;;;;;;2.30;1.70;;;24.30;99.90;;;;;;5092225;28;20207;-70
2023/07/29 07:07:06;;;;;;;3.50;1.83;;;25.60;99.90;;;;;;5090673;28;20663;-70
2023/07/29 07:09:31;;;;;;;1.70;1.60;;;26.60;99.90;;;;;;5092576;28;20186;-71
2023/07/29 07:11:57;;;;;;;1.87;1.67;;;26.90;99.90;;;;;;5091396;28;20276;-69
2023/07/29 07:14:22;;;;;;;2.37;1.20;;;27.00;99.90;;;;;;5092780;28;20219;-70
2023/07/29 07:16:48;;;;;;;1.60;1.00;;;27.20;99.90;;;;;;5091068;28;20246;-70
2023/07/29 07:19:13;;;;;;;1.50;1.40;;;27.40;99.90;;;;;;5091036;28;20205;-71
2023/07/29 07:21:39;;;;;;;2.10;1.90;;;27.10;99.90;;;;;;5091508;28;20169;-70
2023/07/29 07:24:04;;;;;;;1.50;1.33;;;26.70;99.90;;;;;;5091097;28;20566;-71
2023/07/29 07:26:30;;;;;;;1.70;1.60;;;26.40;99.90;;;;;;5090894;28;20209;-70
2023/07/29 07:28:55;;;;;;;5.83;2.10;;;26.40;99.90;;;;;;5091136;28;20165;-70
2023/07/29 07:31:22;;;;;;;2.60;1.60;;;27.00;99.90;;;;;;5092107;28;20601;-71
2023/07/29 07:33:47;;;;;;;2.00;1.10;;;28.10;99.90;;;;;;5092380;28;20611;-71
2023/07/29 07:36:13;;;;;;;1.80;1.60;;;29.00;99.90;;;;;;5090659;28;20415;-70
2023/07/29 07:38:38;;;;;;;1.60;1.50;;;29.20;99.90;;;;;;5092183;28;20169;-70
2023/07/29 07:41:04;;;;;;;3.13;2.67;;;28.80;99.90;;;;;;5092066;28;20775;-70
2023/07/29 07:43:29;;;;;;;4.50;2.57;;;28.30;99.90;;;;;;5090978;28;20511;-69
2023/07/29 07:45:59;;;;;;;3.27;2.97;;;27.90;99.90;;;;;;5091787;28;20162;-70
2023/07/29 07:48:25;;;;;;;2.03;1.87;;;27.40;99.90;;;;;;5090948;28;20182;-70
2023/07/29 07:50:51;;;;;;;3.33;1.67;;;27.00;99.90;;;;;;5092046;28;20412;-66
2023/07/29 07:53:16;;;;;;;1.70;1.53;;;26.70;99.90;;;;;;5091274;28;20784;-67
2023/07/29 07:55:42;;;;;;;2.20;1.50;;;26.40;99.90;;;;;;5090659;28;20170;-66
2023/07/29 07:58:07;;;;;;;2.07;1.60;;;26.50;99.90;;;;;;5092102;28;20173;-67
2023/07/29 08:00:33;;;;;;;5.33;1.70;;;26.90;99.90;;;;;;5087938;28;20280;-68
2023/07/29 08:02:58;;;;;;;1.93;1.60;;;26.90;99.90;;;;;;5090566;28;20214;-67
2023/07/29 08:05:24;;;;;;;1.70;1.47;;;26.50;99.90;;;;;;5090703;28;20219;-67
2023/07/29 08:07:49;;;;;;;1.70;1.60;;;26.70;99.90;;;;;;5090521;28;20338;-67
2023/07/29 08:10:15;;;;;;;1.30;1.00;;;28.10;99.90;;;;;;5091987;28;20555;-68
2023/07/29 08:12:41;;;;;;;1.70;1.60;;;30.80;99.90;;;;;;5092022;28;20204;-68
2023/07/29 08:15:07;;;;;;;2.50;1.40;;;33.50;99.90;;;;;;5089810;28;20253;-68
2023/07/29 08:17:32;;;;;;;1.20;1.10;;;34.20;96.00;;;;;;5091831;28;20173;-68
2023/07/29 08:19:57;;;;;;;1.60;1.50;;;35.00;90.50;;;;;;5090705;28;20435;-68
2023/07/29 08:22:23;;;;;;;1.53;1.43;;;35.40;77.70;;;;;;5091818;28;20219;-68
2023/07/29 08:24:49;;;;;;;1.70;1.43;;;35.40;66.10;;;;;;5090524;28;20165;-67
2023/07/29 08:27:14;;;;;;;1.50;1.33;;;34.70;58.50;;;;;;5081670;28;20192;-67
2023/07/29 08:29:40;;;;;;;1.93;1.50;;;33.90;57.10;;;;;;5091657;28;20197;-67
2023/07/29 08:32:05;;;;;;;3.10;1.50;;;32.90;54.50;;;;;;5092026;28;20157;-67
2023/07/29 08:34:31;;;;;;;2.53;1.20;;;32.00;56.90;;;;;;5092027;28;20545;-66
2023/07/29 08:36:57;;;;;;;1.47;1.30;;;31.20;59.50;;;;;;5090007;28;20198;-67
2023/07/29 08:39:22;;;;;;;8.10;5.40;;;30.60;61.30;;;;;;5085908;28;20606;-67
2023/07/29 08:42:00;;;;;;;3.30;2.57;;;29.80;63.10;;;;;;5090324;28;20252;-67
2023/07/29 08:44:29;;;;;;;2.20;2.00;;;29.00;65.90;;;;;;5089180;28;20260;-67
2023/07/29 08:46:57;;;;;;;1.23;1.13;;;28.40;68.70;;;;;;5082690;28;20473;-67
2023/07/29 08:49:23;;;;;;;1.83;1.50;;;27.90;71.50;;;;;;5094467;28;20454;-68
2023/07/29 08:51:53;;;;;;;1.63;1.50;;;27.30;75.20;;;;;;5095342;28;20927;-66
2023/07/29 08:54:19;;;;;;;1.60;1.13;;;27.00;82.30;;;;;;5094150;28;20407;-66
2023/07/29 08:56:45;;;;;;;1.70;1.37;;;26.90;90.80;;;;;;5093767;28;20480;-67
2023/07/29 08:59:12;;;;;;;1.43;1.27;;;26.60;92.10;;;;;;5094999;28;20735;-67
2023/07/29 09:01:41;;;;;;;1.30;1.20;;;26.30;95.10;;;;;;5092169;28;20423;-67
2023/07/29 09:04:07;;;;;;;1.60;1.40;;;26.10;99.90;;;;;;5094993;28;20472;-67
2023/07/29 09:06:34;;;;;;;1.10;1.00;;;25.70;99.90;;;;;;5094665;28;20892;-67
2023/07/29 09:09:02;;;;;;;1.30;1.20;;;25.40;99.90;;;;;;5094936;28;20204;-67
2023/07/29 09:11:28;;;;;;;1.33;1.23;;;25.20;99.90;;;;;;5094846;28;20395;-66
2023/07/29 09:13:54;;;;;;;1.40;1.30;;;25.30;99.90;;;;;;5092205;28;20442;-66
2023/07/29 09:16:21;;;;;;;2.20;1.33;;;25.20;99.90;;;;;;5093342;28;21067;-65
2023/07/29 09:18:50;;;;;;;4.20;1.40;;;25.40;99.90;;;;;;5092510;28;20234;-66
2023/07/29 09:21:22;;;;;;;1.67;1.43;;;25.50;99.90;;;;;;5093652;28;20460;-65
2023/07/29 09:23:49;;;;;;;1.20;1.10;;;25.60;99.90;;;;;;5094937;28;20399;-66
2023/07/29 09:26:23;;;;;;;1.23;0.97;;;25.90;99.90;;;;;;5113470;28;20427;-66
2023/07/29 09:28:53;;;;;;;2.80;1.37;;;26.20;99.90;;;;;;5091046;28;20492;-67
2023/07/29 09:31:21;;;;;;;1.50;1.00;;;26.50;99.90;;;;;;5093085;28;20419;-66
2023/07/29 09:33:46;;;;;;;5.90;1.50;;;26.70;99.90;;;;;;5094383;28;20496;-66
2023/07/29 09:36:12;;;;;;;3.43;1.17;;;26.80;99.90;;;;;;5094129;28;20857;-66
2023/07/29 09:38:38;;;;;;;1.20;0.97;;;26.70;99.90;;;;;;5093213;28;20725;-66
2023/07/29 09:41:03;;;;;;;1.43;1.33;;;26.80;99.90;;;;;;5092354;28;20231;-66
2023/07/29 09:43:33;;;;;;;1.97;1.30;;;26.70;99.90;;;;;;5094388;28;20411;-66
2023/07/29 09:46:03;;;;;;;1.97;1.40;;;26.60;99.90;;;;;;5073691;28;20166;-67
2023/07/29 09:48:33;;;;;;;1.47;1.37;;;26.40;99.90;;;;;;5094143;28;20494;-66
2023/07/29 09:50:58;;;;;;;1.27;1.17;;;26.30;99.90;;;;;;5073897;28;20407;-67
2023/07/29 09:53:24;;;;;;;3.10;1.30;;;26.40;99.90;;;;;;5073973;28;20495;-67
2023/07/29 09:55:50;;;;;;;1.40;1.30;;;26.60;99.90;;;;;;5071371;28;20712;-67
2023/07/29 09:58:25;;;;;;;2.37;1.40;;;26.70;99.90;;;;;;5074132;28;20488;-67
2023/07/29 10:00:51;;;;;;;1.53;1.10;;;27.20;99.90;;;;;;5078994;28;20716;-67
2023/07/29 10:03:18;;;;;;;1.20;1.10;;;27.70;99.90;;;;;;5093999;28;20404;-67
2023/07/29 10:05:45;;;;;;;1.30;1.20;;;27.70;99.90;;;;;;5093575;28;20166;-66
2023/07/29 10:08:11;;;;;;;2.13;1.30;;;27.60;99.90;;;;;;5093662;28;20463;-67
2023/07/29 10:10:37;;;;;;;3.53;1.40;;;27.60;99.90;;;;;;5093780;28;20423;-66
2023/07/29 10:13:03;;;;;;;1.50;1.17;;;27.40;99.90;;;;;;5092480;28;20422;-66
2023/07/29 10:15:30;;;;;;;1.57;1.40;;;27.10;99.90;;;;;;5092192;28;20716;-66
2023/07/29 10:17:55;;;;;;;1.87;1.77;;;26.50;99.90;;;;;;5092726;28;20431;-66
2023/07/29 10:20:21;;;;;;;2.93;1.90;;;25.90;99.90;;;;;;5093401;28;20438;-66
2023/07/29 10:22:48;;;;;;;2.50;1.40;;;25.30;99.90;;;;;;5093805;28;20280;-67
2023/07/29 10:25:24;;;;;;;6.70;1.33;;;25.00;99.90;;;;;;5093409;28;20400;-67
2023/07/29 10:27:57;;;;;;;1.57;1.47;;;24.80;99.90;;;;;;5091680;28;20557;-67
2023/07/29 10:30:24;;;;;;;1.53;1.13;;;24.70;99.90;;;;;;5082553;28;21006;-66
2023/07/29 10:32:51;;;;;;;1.70;1.60;;;24.90;99.90;;;;;;5090869;28;20420;-67
2023/07/29 10:35:17;;;;;;;2.37;1.43;;;25.20;99.90;;;;;;5093133;28;20409;-66
2023/07/29 10:37:45;;;;;;;1.57;1.10;;;25.60;99.90;;;;;;5093275;28;20779;-67
2023/07/29 10:40:11;;;;;;;1.43;1.23;;;25.80;99.90;;;;;;5091311;28;20606;-67
2023/07/29 10:42:38;;;;;;;1.20;1.10;;;26.00;99.90;;;;;;5092757;28;20904;-67
2023/07/29 10:45:19;;;;;;;1.73;1.40;;;26.10;99.90;;;;;;5091675;28;20851;-67
2023/07/29 10:47:45;;;;;;;1.80;1.60;;;26.00;99.90;;;;;;5092944;28;20461;-67
2023/07/29 10:50:21;;;;;;;1.90;1.17;;;25.80;99.90;;;;;;5091773;28;20458;-67
2023/07/29 10:52:53;;;;;;;1.60;1.30;;;25.70;99.90;;;;;;5092762;28;20467;-67
2023/07/29 10:55:38;;;;;;;2.17;1.60;;;25.50;99.90;;;;;;5092708;28;20392;-67
2023/07/29 10:58:16;;;;;;;1.50;1.40;;;25.40;99.90;;;;;;5093061;28;20400;-66
2023/07/29 11:00:43;;;;;;;1.30;1.20;;;26.40;99.90;;;;;;5087392;28;20505;-67
2023/07/29 11:03:09;;;;;;;2.33;2.13;;;29.00;99.90;;;;;;5091484;28;20420;-67
2023/07/29 11:05:45;;;;;;;1.37;1.13;;;31.40;99.90;;;;;;5092547;28;20439;-67
2023/07/29 11:08:30;;;;;;;1.70;1.23;;;32.60;90.30;;;;;;5092264;28;20998;-67
2023/07/29 11:11:07;;;;;;;1.40;1.30;;;32.60;80.00;;;;;;5091413;28;20882;-67
2023/07/29 11:13:35;;;;;;;1.50;1.40;;;32.20;75.30;;;;;;5092574;28;20404;-67
2023/07/29 11:16:02;;;;;;;3.07;1.83;;;32.80;73.50;;;;;;5092245;28;20897;-68
2023/07/29 11:18:29;;;;;;;1.87;1.43;;;33.80;66.10;;;;;;5091119;28;20426;-67
2023/07/29 11:20:56;;;;;;;1.37;1.27;;;34.50;63.40;;;;;;5090613;28;20813;-69
2023/07/29 11:23:28;;;;;;;1.77;1.53;;;35.50;58.10;;;;;;5092522;28;20446;-70
2023/07/29 11:25:54;;;;;;;4.10;1.10;;;37.00;56.50;;;;;;5092339;28;20418;-70
2023/07/29 11:28:20;;;;;;;1.30;1.20;;;38.80;53.00;;;;;;5092974;28;20539;-70
2023/07/29 11:30:45;;;;;;;1.80;1.40;;;40.60;49.90;;;;;;5091407;28;20492;-69
2023/07/29 11:33:12;;;;;;;1.57;1.47;;;41.80;46.00;;;;;;5090941;28;20165;-69
2023/07/29 11:35:37;;;;;;;2.13;1.87;;;41.80;42.80;;;;;;5091173;28;20314;-70
2023/07/29 11:38:03;;;;;;;1.40;1.30;;;42.30;41.20;;;;;;5091398;28;20447;-70
2023/07/29 11:40:29;;;;;;;2.00;1.80;;;43.30;41.60;;;;;;5091213;28;20713;-70
2023/07/29 11:42:55;;;;;;;1.70;1.60;;;44.40;39.50;;;;;;5092768;28;20204;-70
2023/07/29 11:45:21;;;;;;;1.40;1.30;;;45.00;36.70;;;;;;5091060;28;20212;-70
2023/07/29 11:47:47;;;;;;;1.50;1.40;;;43.60;36.60;;;;;;5092490;28;20181;-69
2023/07/29 11:50:14;;;;;;;4.77;1.90;;;42.30;36.90;;;;;;5091394;28;21044;-69
2023/07/29 11:52:42;;;;;;;1.50;1.40;;;40.90;37.80;;;;;;5090866;28;20177;-70
2023/07/29 11:55:08;;;;;;;1.87;1.60;;;39.60;38.50;;;;;;5091807;28;20399;-69
2023/07/29 11:57:38;;;;;;;1.40;1.30;;;38.70;40.10;;;;;;5090755;28;20504;-69
2023/07/29 12:00:06;;;;;;;1.60;1.30;;;37.70;40.80;;;;;;5088931;28;20454;-68
2023/07/29 12:02:32;;;;;;;1.43;1.33;;;36.80;42.80;;;;;;5086908;28;20399;-69
2023/07/29 12:04:59;;;;;;;1.63;1.53;;;36.60;42.80;;;;;;5091925;28;20403;-68
2023/07/29 12:07:25;;;;;;;1.73;1.53;;;36.20;43.40;;;;;;5091782;28;20426;-68
2023/07/29 12:09:51;;;;;;;1.80;1.57;;;35.60;44.30;;;;;;5089602;28;20447;-69
2023/07/29 12:12:17;;;;;;;1.30;1.20;;;34.70;45.60;;;;;;5091892;28;20892;-67
2023/07/29 12:14:45;;;;;;;1.30;1.20;;;34.30;47.30;;;;;;5091995;28;20904;-68
2023/07/29 12:17:11;;;;;;;3.23;1.20;;;34.10;48.40;;;;;;5091739;28;20450;-68
2023/07/29 12:19:38;;;;;;;1.43;1.33;;;33.20;48.20;;;;;;5091537;28;20444;-68
2023/07/29 12:22:05;;;;;;;1.90;1.70;;;32.50;49.80;;;;;;5094241;28;20268;-68
2023/07/29 12:24:32;;;;;;;1.73;1.63;;;32.00;50.80;;;;;;5095727;28;20410;-67
2023/07/29 12:26:58;;;;;;;1.83;1.40;;;32.40;52.30;;;;;;5095507;28;20407;-68
2023/07/29 12:29:24;;;;;;;2.93;1.17;;;33.70;50.60;;;;;;5094582;28;20432;-68
2023/07/29 12:32:00;;;;;;;1.30;1.10;;;34.70;50.70;;;;;;5095870;28;20892;-69
2023/07/29 12:34:30;;;;;;;1.30;1.17;;;37.20;49.90;;;;;;5095838;28;20247;-69
2023/07/29 12:36:58;;;;;;;1.30;1.20;;;39.50;44.50;;;;;;5095790;28;20806;-70
2023/07/29 12:39:26;;;;;;;2.40;1.33;;;39.70;42.10;;;;;;5093634;28;21037;-70
2023/07/29 12:41:53;;;;;;;1.70;1.60;;;38.50;41.20;;;;;;5096474;28;20464;-70
2023/07/29 12:44:19;;;;;;;1.40;1.30;;;36.70;41.90;;;;;;5096825;28;20433;-70